createdAt,value
2018-04-18T00:00:15.897Z,2.03
2018-04-18T00:02:42.935Z,1.90
2018-04-18T00:05:10.659Z,2.27
2018-04-18T00:07:37.641Z,2.33
2018-04-18T00:10:04.667Z,2.27
2018-04-18T00:12:31.654Z,1.80
2018-04-18T00:14:58.643Z,1.73
2018-04-18T00:17:25.682Z,2.40
2018-04-18T00:19:53.521Z,1.80
2018-04-18T00:22:21.082Z,1.83
2018-04-18T00:24:48.115Z,1.50
2018-04-18T00:27:18.880Z,1.80
2018-04-18T00:29:45.862Z,1.70
2018-04-18T00:32:12.889Z,2.03
2018-04-18T00:34:39.876Z,1.70
2018-04-18T00:37:06.864Z,1.77
2018-04-18T00:42:12.362Z,1.90
2018-04-18T00:44:39.413Z,1.67
2018-04-18T00:47:06.398Z,1.83
2018-04-18T00:49:33.634Z,1.70
2018-04-18T00:52:00.644Z,1.70
2018-04-18T00:54:27.635Z,1.80
2018-04-18T00:56:54.648Z,1.97
2018-04-18T00:59:21.670Z,1.53
2018-04-18T01:01:48.659Z,1.83
2018-04-18T01:04:15.690Z,2.20
2018-04-18T01:06:42.707Z,2.00
2018-04-18T01:09:09.695Z,1.63
2018-04-18T01:11:36.679Z,1.67
2018-04-18T01:14:03.699Z,1.60
2018-04-18T01:16:30.687Z,2.13
2018-04-18T01:18:57.675Z,1.50
2018-04-18T01:21:24.791Z,2.10
2018-04-18T01:23:51.774Z,1.50
2018-04-18T01:26:18.775Z,2.00
2018-04-18T01:28:46.643Z,2.20
2018-04-18T01:31:13.651Z,1.80
2018-04-18T01:33:40.624Z,1.93
2018-04-18T01:36:07.642Z,2.37
2018-04-18T01:38:34.624Z,2.30
2018-04-18T01:41:02.006Z,1.87
2018-04-18T01:43:29.033Z,2.10
2018-04-18T01:45:56.025Z,2.10
2018-04-18T01:48:23.009Z,2.07
2018-04-18T01:50:50.036Z,2.00
2018-04-18T01:53:18.979Z,1.60
2018-04-18T01:55:45.962Z,1.80
2018-04-18T01:58:12.988Z,2.20
2018-04-18T02:00:40.058Z,1.77
2018-04-18T02:03:07.045Z,2.10
2018-04-18T02:08:12.528Z,2.03
2018-04-18T02:10:39.560Z,2.03
2018-04-18T02:13:06.566Z,1.93
2018-04-18T02:15:33.568Z,2.10
2018-04-18T02:18:00.621Z,1.50
2018-04-18T02:20:27.684Z,2.20
2018-04-18T02:22:54.736Z,1.53
2018-04-18T02:25:21.759Z,2.03
2018-04-18T02:27:48.765Z,1.90
2018-04-18T02:30:15.762Z,2.13
2018-04-18T02:32:42.796Z,1.60
2018-04-18T02:35:09.786Z,2.30
2018-04-18T02:37:36.783Z,1.80
2018-04-18T02:40:03.818Z,1.77
2018-04-18T02:42:30.809Z,2.40
2018-04-18T02:44:57.795Z,2.00
2018-04-18T02:47:24.829Z,1.90
2018-04-18T02:49:52.760Z,1.70
2018-04-18T02:52:19.738Z,1.80
2018-04-18T02:54:46.767Z,1.63
2018-04-18T02:57:13.756Z,1.67
2018-04-18T02:59:40.750Z,1.60
2018-04-18T03:02:07.795Z,2.10
2018-04-18T03:04:34.785Z,1.87
2018-04-18T03:07:01.776Z,1.97
2018-04-18T03:09:28.803Z,1.90
2018-04-18T03:11:55.788Z,1.90
2018-04-18T03:14:22.773Z,1.80
2018-04-18T03:16:50.614Z,1.80
2018-04-18T03:21:49.570Z,1.90
2018-04-18T03:24:17.081Z,1.60
2018-04-18T03:26:44.076Z,1.97
2018-04-18T03:29:11.062Z,1.90
2018-04-18T03:31:38.094Z,2.20
2018-04-18T03:36:46.550Z,2.30
2018-04-18T03:39:13.704Z,1.80
2018-04-18T03:41:40.528Z,1.73
2018-04-18T03:44:07.562Z,2.40
2018-04-18T03:46:35.373Z,2.00
2018-04-18T03:49:02.363Z,2.50
2018-04-18T03:51:29.377Z,1.70
2018-04-18T03:53:56.362Z,2.00
2018-04-18T03:56:23.349Z,2.00
2018-04-18T03:58:50.687Z,2.00
2018-04-18T04:01:17.619Z,1.77
2018-04-18T04:03:44.617Z,1.80
2018-04-18T04:06:13.579Z,2.03
2018-04-18T04:08:40.668Z,1.77
2018-04-18T04:11:07.666Z,1.90
2018-04-18T04:13:34.679Z,2.10
2018-04-18T04:16:01.672Z,2.47
2018-04-18T04:18:40.562Z,2.17
2018-04-18T04:21:22.992Z,2.10
2018-04-18T04:24:01.897Z,2.03
2018-04-18T04:28:51.869Z,2.30
2018-04-18T04:31:19.347Z,2.07
2018-04-18T04:33:46.334Z,2.10
2018-04-18T04:36:13.321Z,2.30
2018-04-18T04:38:40.335Z,2.40
2018-04-18T04:41:07.311Z,2.33
2018-04-18T04:43:34.303Z,1.73
2018-04-18T04:46:01.346Z,1.80
2018-04-18T04:48:28.328Z,2.00
2018-04-18T04:50:55.319Z,1.93
2018-04-18T04:53:22.339Z,2.03
2018-04-18T04:55:49.321Z,2.03
2018-04-18T04:58:16.329Z,3.20
2018-04-18T05:00:43.342Z,3.20
2018-04-18T05:03:10.365Z,3.43
2018-04-18T05:05:37.361Z,4.00
2018-04-18T05:08:06.029Z,3.20
2018-04-18T05:10:33.072Z,3.20
2018-04-18T05:13:00.080Z,3.13
2018-04-18T05:15:27.222Z,3.40
2018-04-18T05:17:54.337Z,3.60
2018-04-18T05:20:21.338Z,3.43
2018-04-18T05:22:48.369Z,3.67
2018-04-18T05:25:15.355Z,3.43
2018-04-18T05:27:42.348Z,3.50
2018-04-18T05:30:09.461Z,3.23
2018-04-18T05:32:36.458Z,3.50
2018-04-18T05:35:03.453Z,4.17
2018-04-18T05:37:30.481Z,4.17
2018-04-18T05:39:57.479Z,3.93
2018-04-18T05:42:24.566Z,3.93
2018-04-18T05:44:51.589Z,4.00
2018-04-18T05:47:18.586Z,3.63
2018-04-18T05:49:45.580Z,4.27
2018-04-18T05:54:53.066Z,4.55
2018-04-18T05:57:21.050Z,4.47
2018-04-18T05:59:49.001Z,4.03
2018-04-18T06:02:16.000Z,4.27
2018-04-18T06:04:43.296Z,4.10
2018-04-18T06:07:10.287Z,4.20
2018-04-18T06:09:37.290Z,4.57
2018-04-18T06:12:04.312Z,4.23
2018-04-18T06:14:31.329Z,4.07
2018-04-18T06:16:58.581Z,4.43
2018-04-18T06:19:25.640Z,4.00
2018-04-18T06:21:52.615Z,3.57
2018-04-18T06:24:19.613Z,4.00
2018-04-18T06:26:47.581Z,3.57
2018-04-18T06:29:14.583Z,3.73
2018-04-18T06:31:41.668Z,3.60
2018-04-18T06:34:10.555Z,3.70
2018-04-18T06:36:37.550Z,3.50
2018-04-18T06:39:05.313Z,3.33
2018-04-18T06:41:32.433Z,4.00
2018-04-18T06:43:59.434Z,3.30
2018-04-18T06:46:26.436Z,3.33
2018-04-18T06:48:53.460Z,3.70
2018-04-18T06:51:20.480Z,3.37
2018-04-18T06:53:47.473Z,4.23
2018-04-18T06:56:14.488Z,3.97
2018-04-18T06:58:41.485Z,4.13
2018-04-18T07:01:08.507Z,3.47
2018-04-18T07:03:35.538Z,3.00
2018-04-18T07:06:02.552Z,3.17
2018-04-18T07:08:29.562Z,3.00
2018-04-18T07:13:35.410Z,2.90
2018-04-18T07:16:02.431Z,3.43
2018-04-18T07:18:29.428Z,3.43
2018-04-18T07:20:56.433Z,3.37
2018-04-18T07:23:23.455Z,2.90
2018-04-18T07:25:50.461Z,2.60
2018-04-18T07:28:17.461Z,2.67
2018-04-18T07:30:44.472Z,2.60
2018-04-18T07:33:11.455Z,2.93
2018-04-18T07:35:39.389Z,2.70
2018-04-18T07:38:06.402Z,2.93
2018-04-18T07:40:33.478Z,2.27
2018-04-18T07:43:00.942Z,2.80
2018-04-18T07:45:28.448Z,2.63
2018-04-18T07:47:56.941Z,2.60
2018-04-18T07:50:23.945Z,2.40
2018-04-18T07:52:50.996Z,2.90
2018-04-18T07:55:22.292Z,2.63
2018-04-18T07:57:45.840Z,2.13
2018-04-18T08:00:12.876Z,2.30
2018-04-18T08:02:39.896Z,2.37
2018-04-18T08:05:06.885Z,2.10
2018-04-18T08:07:33.930Z,2.47
2018-04-18T08:10:00.968Z,2.03
2018-04-18T08:12:27.931Z,2.40
2018-04-18T08:17:28.843Z,2.87
2018-04-18T08:19:55.880Z,2.83
2018-04-18T08:22:23.705Z,2.30
2018-04-18T08:24:50.717Z,2.23
2018-04-18T08:27:17.771Z,2.50
2018-04-18T08:29:44.765Z,2.43
2018-04-18T08:32:11.768Z,2.37
2018-04-18T08:34:38.790Z,2.60
2018-04-18T08:39:44.289Z,2.83
2018-04-18T08:42:11.289Z,2.70
2018-04-18T08:44:38.293Z,2.70
2018-04-18T08:47:05.314Z,2.93
2018-04-18T08:49:32.392Z,2.40
2018-04-18T08:51:59.384Z,3.07
2018-04-18T08:54:27.362Z,3.60
2018-04-18T08:56:54.920Z,3.60
2018-04-18T08:59:22.867Z,2.67
2018-04-18T09:01:49.897Z,3.20
2018-04-18T09:04:16.883Z,3.00
2018-04-18T09:06:43.950Z,3.00
2018-04-18T09:09:10.967Z,2.90
2018-04-18T09:11:37.952Z,3.43
2018-04-18T09:14:04.954Z,2.90
2018-04-18T09:16:31.963Z,2.90
2018-04-18T09:18:58.962Z,2.90
2018-04-18T09:21:25.932Z,2.40
2018-04-18T09:23:52.966Z,2.97
2018-04-18T09:26:19.961Z,3.43
2018-04-18T09:28:46.961Z,3.07
2018-04-18T09:31:14.315Z,3.57
2018-04-18T09:33:41.340Z,3.10
2018-04-18T09:36:08.301Z,3.33
2018-04-18T09:38:35.326Z,3.20
2018-04-18T09:41:03.281Z,3.13
2018-04-18T09:43:30.269Z,3.37
2018-04-18T09:45:58.110Z,2.90
2018-04-18T09:48:25.095Z,3.87
2018-04-18T09:50:52.086Z,3.47
2018-04-18T09:53:19.195Z,3.10
2018-04-18T09:58:24.726Z,3.15
2018-04-18T10:00:51.683Z,2.60
2018-04-18T10:03:18.664Z,2.67
2018-04-18T10:05:46.633Z,2.93
2018-04-18T10:08:13.629Z,3.10
2018-04-18T10:10:40.616Z,2.83
2018-04-18T10:13:07.631Z,2.90
2018-04-18T10:15:34.621Z,3.50
2018-04-18T10:18:01.605Z,4.07
2018-04-18T10:20:28.626Z,3.00
2018-04-18T10:22:55.784Z,3.07
2018-04-18T10:25:22.672Z,3.30
2018-04-18T10:27:49.685Z,3.47
2018-04-18T10:30:16.670Z,3.63
2018-04-18T10:32:44.592Z,3.43
2018-04-18T10:35:11.622Z,3.93
2018-04-18T10:37:38.618Z,3.17
2018-04-18T10:40:05.606Z,3.60
2018-04-18T10:42:32.626Z,3.03
2018-04-18T10:44:59.645Z,2.90
2018-04-18T10:47:26.628Z,3.10
2018-04-18T10:49:53.668Z,3.77
2018-04-18T10:52:21.464Z,3.30
2018-04-18T10:54:48.461Z,3.37
2018-04-18T10:57:16.320Z,4.50
2018-04-18T10:59:43.306Z,3.37
2018-04-18T11:02:10.408Z,3.97
2018-04-18T11:04:37.445Z,2.30
2018-04-18T11:07:04.408Z,2.80
2018-04-18T11:09:31.401Z,3.10
2018-04-18T11:11:58.414Z,2.23
2018-04-18T11:14:25.411Z,1.87
2018-04-18T11:16:52.413Z,1.60
2018-04-18T11:19:19.463Z,1.97
2018-04-18T11:21:48.780Z,1.70
2018-04-18T11:26:54.301Z,1.92
2018-04-18T11:29:21.272Z,1.80
2018-04-18T11:31:48.257Z,1.40
2018-04-18T11:34:15.279Z,1.63
2018-04-18T11:36:43.236Z,1.47
2018-04-18T11:39:10.219Z,1.70
2018-04-18T11:41:37.240Z,1.33
2018-04-18T11:44:04.230Z,2.53
2018-04-18T11:46:31.531Z,2.10
2018-04-18T11:48:58.552Z,1.90
2018-04-18T11:51:25.539Z,2.10
2018-04-18T11:53:52.523Z,1.60
2018-04-18T11:56:19.572Z,1.73
2018-04-18T11:58:46.567Z,1.63
2018-04-18T12:01:16.515Z,1.57
2018-04-18T12:03:43.534Z,1.30
2018-04-18T12:06:10.532Z,1.87
2018-04-18T12:08:37.525Z,1.50
2018-04-18T12:11:05.355Z,1.43
2018-04-18T12:13:33.417Z,1.23
2018-04-18T12:16:00.413Z,1.33
2018-04-18T12:18:27.431Z,1.10
2018-04-18T12:20:54.425Z,1.33
2018-04-18T12:23:21.426Z,1.07
2018-04-18T12:25:51.193Z,1.00
2018-04-18T12:28:16.322Z,1.10
2018-04-18T12:30:43.393Z,1.17
2018-04-18T12:33:10.406Z,1.17
2018-04-18T12:35:37.400Z,0.90
2018-04-18T12:38:04.396Z,1.00
2018-04-18T12:40:31.435Z,0.90
2018-04-18T12:42:59.376Z,0.77
2018-04-18T12:45:26.366Z,0.97
2018-04-18T12:50:36.612Z,1.00
2018-04-18T12:53:03.476Z,1.03
2018-04-18T12:55:30.474Z,0.90
2018-04-18T12:57:58.409Z,0.80
2018-04-18T13:00:25.427Z,1.10
2018-04-18T13:02:53.032Z,0.87
2018-04-18T13:05:20.220Z,0.90
2018-04-18T13:07:47.773Z,1.00
2018-04-18T13:12:54.895Z,0.90
2018-04-18T13:15:21.897Z,1.00
2018-04-18T13:17:48.888Z,1.10
2018-04-18T13:20:15.926Z,0.87
2018-04-18T13:22:43.000Z,0.90
2018-04-18T13:25:09.998Z,1.00
2018-04-18T13:27:37.004Z,0.80
2018-04-18T13:30:03.990Z,0.80
2018-04-18T13:32:30.979Z,0.90
2018-04-18T13:34:58.425Z,0.73
2018-04-18T13:37:25.439Z,1.00
2018-04-18T13:39:52.787Z,0.87
2018-04-18T13:42:19.817Z,1.00
2018-04-18T13:44:46.813Z,1.00
2018-04-18T13:47:13.818Z,0.97
2018-04-18T13:49:40.843Z,1.13
2018-04-18T13:52:07.842Z,0.80
2018-04-18T13:54:34.839Z,0.83
2018-04-18T13:57:01.862Z,1.00
2018-04-18T13:59:28.854Z,0.90
2018-04-18T14:01:56.692Z,0.93
2018-04-18T14:04:23.716Z,0.83
2018-04-18T14:06:50.701Z,0.87
2018-04-18T14:09:17.681Z,0.90
2018-04-18T14:11:44.691Z,0.90
2018-04-18T14:14:11.665Z,0.90
2018-04-18T14:16:38.655Z,0.90
2018-04-18T14:19:06.376Z,0.80
2018-04-18T14:21:33.346Z,0.90
2018-04-18T14:24:00.332Z,0.90
2018-04-18T14:26:28.087Z,0.83
2018-04-18T14:28:55.113Z,0.80
2018-04-18T14:31:22.112Z,0.90
2018-04-18T14:36:27.642Z,0.80
2018-04-18T14:38:54.679Z,0.90
2018-04-18T14:41:21.670Z,1.10
2018-04-18T14:43:48.667Z,0.90
2018-04-18T14:46:15.697Z,1.33
2018-04-18T14:48:42.706Z,1.00
2018-04-18T14:51:09.684Z,1.20
2018-04-18T14:53:37.682Z,0.97
2018-04-18T14:56:04.669Z,0.80
2018-04-18T14:58:31.660Z,0.70
2018-04-18T15:00:58.685Z,0.80
2018-04-18T15:03:27.525Z,0.80
2018-04-18T15:05:54.607Z,0.90
2018-04-18T15:08:21.624Z,1.30
2018-04-18T15:10:48.656Z,0.80
2018-04-18T15:13:15.616Z,0.90
2018-04-18T15:15:42.648Z,1.20
2018-04-18T15:18:09.727Z,0.90
2018-04-18T15:20:36.708Z,0.90
2018-04-18T15:23:03.755Z,0.90
2018-04-18T15:25:30.750Z,0.93
2018-04-18T15:27:57.768Z,0.90
2018-04-18T15:30:24.759Z,1.43
2018-04-18T15:32:52.757Z,1.07
2018-04-18T15:35:19.772Z,0.97
2018-04-18T15:37:49.516Z,0.87
2018-04-18T15:40:16.992Z,1.00
2018-04-18T15:42:43.865Z,1.10
2018-04-18T15:45:11.398Z,0.70
2018-04-18T15:47:38.376Z,1.20
2018-04-18T15:50:06.234Z,0.90
2018-04-18T15:52:33.258Z,1.00
2018-04-18T15:55:00.331Z,1.20
2018-04-18T15:57:27.322Z,1.03
2018-04-18T16:02:33.071Z,0.90
2018-04-18T16:05:01.036Z,0.83
2018-04-18T16:07:28.052Z,1.00
2018-04-18T16:09:55.362Z,1.30
2018-04-18T16:12:22.378Z,0.83
2018-04-18T16:14:49.355Z,1.20
2018-04-18T16:17:16.334Z,0.97
2018-04-18T16:19:43.347Z,0.90
2018-04-18T16:22:10.324Z,1.00
2018-04-18T16:24:37.311Z,1.23
2018-04-18T16:27:04.358Z,1.10
2018-04-18T16:32:21.275Z,1.20
2018-04-18T16:34:48.251Z,1.00
2018-04-18T16:37:15.230Z,1.20
2018-04-18T16:39:45.579Z,1.37
2018-04-18T16:42:12.563Z,0.90
2018-04-18T16:44:39.546Z,0.90
2018-04-18T16:47:06.559Z,1.10
2018-04-18T16:49:33.542Z,1.00
2018-04-18T16:52:00.535Z,1.10
2018-04-18T16:54:27.552Z,1.10
2018-04-18T16:56:55.471Z,1.47
2018-04-18T16:59:23.256Z,1.23
2018-04-18T17:01:51.088Z,0.90
2018-04-18T17:04:18.064Z,1.00
2018-04-18T17:06:46.066Z,1.10
2018-04-18T17:09:13.038Z,0.97
2018-04-18T17:11:40.868Z,1.20
2018-04-18T17:14:08.679Z,1.10
2018-04-18T17:16:36.434Z,1.20
2018-04-18T17:19:03.413Z,1.20
2018-04-18T17:21:32.799Z,1.00
2018-04-18T17:23:59.753Z,1.00
2018-04-18T17:26:26.744Z,1.00
2018-04-18T17:28:53.731Z,0.93
2018-04-18T17:31:20.760Z,0.73
2018-04-18T17:33:47.737Z,1.27
2018-04-18T17:36:14.719Z,1.07
2018-04-18T17:38:41.743Z,0.83
2018-04-18T17:41:08.735Z,1.13
2018-04-18T17:43:40.532Z,1.10
2018-04-18T17:46:08.391Z,1.27
2018-04-18T17:48:36.356Z,1.50
2018-04-18T17:51:03.328Z,1.07
2018-04-18T17:56:09.294Z,1.30
2018-04-18T17:58:37.174Z,1.20
2018-04-18T18:01:04.886Z,1.37
2018-04-18T18:03:31.960Z,1.07
2018-04-18T18:05:58.983Z,1.30
2018-04-18T18:08:25.958Z,1.50
2018-04-18T18:10:52.945Z,1.57
2018-04-18T18:13:22.892Z,1.30
2018-04-18T18:15:52.235Z,1.70
2018-04-18T18:20:55.458Z,1.50
2018-04-18T18:23:22.451Z,1.70
2018-04-18T18:25:49.453Z,1.37
2018-04-18T18:28:16.488Z,1.83
2018-04-18T18:30:43.470Z,1.73
2018-04-18T18:33:10.452Z,1.50
2018-04-18T18:35:37.691Z,2.20
2018-04-18T18:38:04.690Z,1.60
2018-04-18T18:40:31.618Z,1.60
2018-04-18T18:42:59.040Z,2.03
2018-04-18T18:45:26.018Z,1.57
2018-04-18T18:47:52.991Z,1.60
2018-04-18T18:50:20.110Z,1.80
2018-04-18T18:52:47.089Z,2.97
2018-04-18T18:55:14.070Z,2.00
2018-04-18T18:57:41.081Z,1.90
2018-04-18T19:00:08.085Z,1.73
2018-04-18T19:02:35.079Z,2.00
2018-04-18T19:05:02.687Z,1.80
2018-04-18T19:07:35.174Z,1.60
2018-04-18T19:12:38.416Z,1.60
2018-04-18T19:15:05.550Z,1.50
2018-04-18T19:17:32.561Z,1.30
2018-04-18T19:20:00.044Z,1.60
2018-04-18T19:22:27.045Z,1.70
2018-04-18T19:24:54.077Z,1.70
2018-04-18T19:27:21.132Z,1.80
2018-04-18T19:29:50.189Z,1.97
2018-04-18T19:32:17.996Z,1.80
2018-04-18T19:34:45.055Z,1.80
2018-04-18T19:39:52.199Z,1.80
2018-04-18T19:44:57.234Z,1.60
2018-04-18T19:52:42.793Z,1.67
2018-04-18T19:55:12.102Z,1.50
2018-04-18T19:57:39.899Z,2.03
2018-04-18T20:00:11.120Z,1.47
2018-04-18T20:05:17.194Z,1.70
2018-04-18T20:07:44.136Z,1.63
2018-04-18T20:10:14.417Z,1.30
2018-04-18T20:12:41.990Z,1.00
2018-04-18T20:17:56.012Z,1.60
2018-04-18T20:20:23.031Z,1.53
2018-04-18T20:22:50.606Z,1.83
2018-04-18T20:25:17.688Z,1.70
2018-04-18T20:27:49.503Z,1.70
2018-04-18T20:30:16.587Z,1.90
2018-04-18T20:32:43.734Z,1.70
2018-04-18T20:35:10.806Z,1.50
2018-04-18T20:37:37.810Z,1.70
2018-04-18T20:40:04.842Z,1.53
2018-04-18T20:42:31.952Z,1.30
2018-04-18T20:44:58.965Z,1.43
2018-04-18T20:47:25.991Z,1.63
2018-04-18T20:49:53.095Z,1.43
2018-04-18T20:52:25.391Z,1.73
2018-04-18T20:57:43.605Z,1.40
2018-04-18T21:00:08.784Z,1.83
2018-04-18T21:02:35.868Z,1.70
2018-04-18T21:05:02.898Z,2.03
2018-04-18T21:10:18.495Z,1.70
2018-04-18T21:12:45.659Z,2.13
2018-04-18T21:15:18.067Z,1.73
2018-04-18T21:17:46.438Z,1.77
2018-04-18T21:20:13.479Z,1.40
2018-04-18T21:22:40.596Z,1.83
2018-04-18T21:27:40.209Z,1.80
2018-04-18T21:30:11.901Z,1.60
2018-04-18T21:32:36.687Z,1.87
2018-04-18T21:35:06.763Z,1.70
2018-04-18T21:37:33.985Z,1.90
2018-04-18T21:40:01.189Z,1.77
2018-04-18T21:45:08.650Z,1.60
2018-04-18T21:47:35.638Z,1.50
2018-04-18T21:50:04.017Z,1.60
2018-04-18T21:55:09.343Z,1.50
2018-04-18T21:57:36.360Z,1.73
2018-04-18T22:00:03.421Z,1.53
2018-04-18T22:02:30.392Z,1.43
2018-04-18T22:04:58.327Z,2.10
2018-04-18T22:07:25.336Z,1.90
2018-04-18T22:09:52.327Z,1.37
2018-04-18T22:12:20.706Z,1.57
2018-04-18T22:17:21.119Z,1.60
2018-04-18T22:22:29.495Z,1.73
2018-04-18T22:24:56.801Z,1.50
2018-04-18T22:27:23.980Z,1.60
2018-04-18T22:29:52.904Z,1.60
2018-04-18T22:32:20.226Z,2.03
2018-04-18T22:34:47.276Z,2.00
2018-04-18T22:37:14.397Z,1.93
2018-04-18T22:39:41.744Z,1.60
2018-04-18T22:42:08.990Z,2.13
2018-04-18T22:44:35.983Z,1.60
2018-04-18T22:47:03.056Z,2.10
2018-04-18T22:49:30.023Z,2.03
2018-04-18T22:51:58.953Z,2.03
2018-04-18T22:54:25.972Z,2.30
2018-04-18T22:56:52.976Z,1.50
2018-04-18T22:59:20.023Z,1.53
2018-04-18T23:01:47.021Z,1.50
2018-04-18T23:04:14.273Z,1.70
2018-04-18T23:06:42.258Z,2.00
2018-04-18T23:09:09.268Z,1.90
2018-04-18T23:11:36.364Z,1.70
2018-04-18T23:14:03.771Z,1.83
2018-04-18T23:16:31.051Z,1.90
2018-04-18T23:18:58.418Z,1.63
2018-04-18T23:21:25.805Z,1.70
2018-04-18T23:23:52.981Z,2.07
2018-04-18T23:26:22.446Z,1.80
2018-04-18T23:28:49.770Z,1.63
2018-04-18T23:31:17.800Z,1.60
2018-04-18T23:33:44.809Z,1.50
2018-04-18T23:41:30.744Z,1.75
2018-04-18T23:43:56.850Z,1.70
2018-04-18T23:46:23.858Z,1.60
2018-04-18T23:48:50.929Z,1.23
2018-04-18T23:51:17.882Z,1.87
2018-04-18T23:53:44.883Z,1.40
2018-04-18T23:56:11.941Z,1.60
2018-04-18T23:58:38.976Z,1.30
